createdAt,value
2023-01-20T00:00:17.971Z,1001
2023-01-20T00:01:21.088Z,1001
2023-01-20T00:02:23.583Z,1001
2023-01-20T00:03:26.594Z,1001
2023-01-20T00:04:29.871Z,1001
2023-01-20T00:05:33.020Z,1001
2023-01-20T00:06:36.376Z,1001.1
2023-01-20T00:07:39.479Z,1001.1
2023-01-20T00:08:43.105Z,1001
2023-01-20T00:09:46.664Z,1001
2023-01-20T00:10:49.445Z,1001
2023-01-20T00:11:52.873Z,1001
2023-01-20T00:12:56.258Z,1001.1
2023-01-20T00:13:59.657Z,1001.1
2023-01-20T00:15:03.563Z,1001.1
2023-01-20T00:16:07.015Z,1001.1
2023-01-20T00:17:10.503Z,1001.2
2023-01-20T00:18:13.297Z,1001.2
2023-01-20T00:19:16.652Z,1001.2
2023-01-20T00:20:20.071Z,1001.2
2023-01-20T00:21:22.837Z,1001.2
2023-01-20T00:22:26.045Z,1001.3
2023-01-20T00:23:29.337Z,1001.3
2023-01-20T00:24:32.360Z,1001.3
2023-01-20T00:25:35.474Z,1001.3
2023-01-20T00:26:38.578Z,1001.3
2023-01-20T00:27:41.619Z,1001.3
2023-01-20T00:28:44.340Z,1001.4
2023-01-20T00:29:47.886Z,1001.4
2023-01-20T00:32:09.835Z,1001.4
2023-01-20T00:33:12.962Z,1001.4
2023-01-20T00:34:15.848Z,1001.4
2023-01-20T00:35:18.692Z,1001.4
2023-01-20T00:36:21.189Z,1001.5
2023-01-20T00:37:24.262Z,1001.5
2023-01-20T00:38:27.626Z,1001.4
2023-01-20T00:39:31.172Z,1001.5
2023-01-20T00:40:34.249Z,1001.5
2023-01-20T00:41:37.091Z,1001.5
2023-01-20T00:42:39.896Z,1001.5
2023-01-20T00:43:42.910Z,1001.5
2023-01-20T00:44:45.748Z,1001.5
2023-01-20T00:45:48.844Z,1001.6
2023-01-20T00:46:52.758Z,1001.6
2023-01-20T00:47:56.453Z,1001.6
2023-01-20T00:48:59.387Z,1001.6
2023-01-20T00:50:02.017Z,1001.6
2023-01-20T00:51:04.511Z,1001.5
2023-01-20T00:52:07.336Z,1001.6
2023-01-20T00:53:10.928Z,1001.6
2023-01-20T00:54:14.599Z,1001.6
2023-01-20T00:55:18.332Z,1001.6
2023-01-20T00:56:22.048Z,1001.6
2023-01-20T00:57:25.590Z,1001.6
2023-01-20T00:58:28.017Z,1001.6
2023-01-20T00:59:31.380Z,1001.6
2023-01-20T01:00:34.251Z,1001.7
2023-01-20T01:01:37.890Z,1001.7
2023-01-20T01:02:42.434Z,1001.6
2023-01-20T01:03:45.917Z,1001.7
2023-01-20T01:04:49.006Z,1001.7
2023-01-20T01:05:52.735Z,1001.7
2023-01-20T01:06:56.498Z,1001.7
2023-01-20T01:07:59.492Z,1001.8
2023-01-20T01:09:02.969Z,1001.8
2023-01-20T01:10:05.830Z,1001.8
2023-01-20T01:11:08.931Z,1001.8
2023-01-20T01:12:12.003Z,1001.8
2023-01-20T01:13:15.509Z,1001.8
2023-01-20T01:14:18.310Z,1001.8
2023-01-20T01:15:21.454Z,1001.8
2023-01-20T01:16:25.036Z,1001.8
2023-01-20T01:17:28.699Z,1001.8
2023-01-20T01:18:32.592Z,1001.8
2023-01-20T01:19:35.068Z,1001.8
2023-01-20T01:20:38.564Z,1001.8
2023-01-20T01:21:41.272Z,1001.8
2023-01-20T01:22:44.145Z,1001.8
2023-01-20T01:23:47.151Z,1001.9
2023-01-20T01:24:50.612Z,1001.8
2023-01-20T01:25:53.968Z,1001.9
2023-01-20T01:26:56.804Z,1001.9
2023-01-20T01:28:00.166Z,1001.9
2023-01-20T01:29:03.530Z,1001.9
2023-01-20T01:30:05.964Z,1001.9
2023-01-20T01:31:09.171Z,1001.9
2023-01-20T01:32:12.571Z,1001.9
2023-01-20T01:33:15.716Z,1001.9
2023-01-20T01:34:19.202Z,1002
2023-01-20T01:35:22.316Z,1002
2023-01-20T01:36:25.334Z,1002
2023-01-20T01:37:27.912Z,1002
2023-01-20T01:38:30.915Z,1001.9
2023-01-20T01:39:34.326Z,1002
2023-01-20T01:40:38.053Z,1002
2023-01-20T01:41:41.043Z,1002
2023-01-20T01:42:44.035Z,1002
2023-01-20T01:43:47.295Z,1002
2023-01-20T01:44:50.281Z,1002.1
2023-01-20T01:45:52.872Z,1002.1
2023-01-20T01:46:56.918Z,1002.1
2023-01-20T01:47:59.422Z,1002.1
2023-01-20T01:49:02.685Z,1002.1
2023-01-20T01:50:06.554Z,1002
2023-01-20T01:51:09.299Z,1002.1
2023-01-20T01:52:12.033Z,1002.1
2023-01-20T01:53:14.969Z,1002.1
2023-01-20T01:54:18.115Z,1002.1
2023-01-20T01:55:21.570Z,1002
2023-01-20T01:56:24.744Z,1002.1
2023-01-20T01:57:27.796Z,1002.1
2023-01-20T01:58:30.581Z,1002
2023-01-20T01:59:33.070Z,1002.1
2023-01-20T02:00:35.810Z,1002.1
2023-01-20T02:01:38.567Z,1002.1
2023-01-20T02:02:42.099Z,1002.1
2023-01-20T02:03:45.875Z,1002.1
2023-01-20T02:04:51.016Z,1002.1
2023-01-20T02:05:54.707Z,1002.1
2023-01-20T02:06:57.851Z,1002.1
2023-01-20T02:08:00.367Z,1002.1
2023-01-20T02:09:03.465Z,1002.2
2023-01-20T02:10:06.462Z,1002.2
2023-01-20T02:11:09.556Z,1002.3
2023-01-20T02:12:13.023Z,1002.3
2023-01-20T02:13:17.100Z,1002.3
2023-01-20T02:14:20.258Z,1002.3
2023-01-20T02:15:22.969Z,1002.3
2023-01-20T02:16:26.538Z,1002.3
2023-01-20T02:17:29.751Z,1002.4
2023-01-20T02:18:32.567Z,1002.3
2023-01-20T02:19:35.556Z,1002.4
2023-01-20T02:20:38.985Z,1002.4
2023-01-20T02:21:42.496Z,1002.3
2023-01-20T02:22:46.154Z,1002.4
2023-01-20T02:23:49.014Z,1002.4
2023-01-20T02:24:51.185Z,1002.4
2023-01-20T02:25:53.786Z,1002.4
2023-01-20T02:26:56.662Z,1002.4
2023-01-20T02:27:59.734Z,1002.4
2023-01-20T02:29:02.790Z,1002.4
2023-01-20T02:30:05.379Z,1002.4
2023-01-20T02:31:09.381Z,1002.5
2023-01-20T02:32:11.898Z,1002.4
2023-01-20T02:33:14.618Z,1002.5
2023-01-20T02:34:18.020Z,1002.5
2023-01-20T02:35:21.436Z,1002.5
2023-01-20T02:36:25.206Z,1002.5
2023-01-20T02:37:29.055Z,1002.5
2023-01-20T02:38:32.379Z,1002.5
2023-01-20T02:39:35.443Z,1002.5
2023-01-20T02:40:38.900Z,1002.5
2023-01-20T02:41:42.272Z,1002.5
2023-01-20T02:42:45.938Z,1002.5
2023-01-20T02:43:48.378Z,1002.5
2023-01-20T02:44:52.084Z,1002.5
2023-01-20T02:45:55.949Z,1002.6
2023-01-20T02:46:59.167Z,1002.5
2023-01-20T02:48:02.173Z,1002.5
2023-01-20T02:49:05.162Z,1002.5
2023-01-20T02:50:08.459Z,1002.5
2023-01-20T02:51:11.528Z,1002.6
2023-01-20T02:52:14.633Z,1002.5
2023-01-20T02:53:18.378Z,1002.6
2023-01-20T02:54:21.176Z,1002.6
2023-01-20T02:55:24.275Z,1002.6
2023-01-20T02:56:27.413Z,1002.6
2023-01-20T02:57:30.506Z,1002.7
2023-01-20T02:58:33.385Z,1002.6
2023-01-20T02:59:36.228Z,1002.7
2023-01-20T03:00:39.421Z,1002.7
2023-01-20T03:01:42.907Z,1002.6
2023-01-20T03:02:47.441Z,1002.7
2023-01-20T03:03:50.958Z,1002.6
2023-01-20T03:04:54.685Z,1002.6
2023-01-20T03:05:57.863Z,1002.7
2023-01-20T03:07:01.267Z,1002.7
2023-01-20T03:08:04.788Z,1002.7
2023-01-20T03:09:08.952Z,1002.7
2023-01-20T03:10:11.776Z,1002.7
2023-01-20T03:11:15.141Z,1002.7
2023-01-20T03:12:18.067Z,1002.7
2023-01-20T03:13:21.635Z,1002.7
2023-01-20T03:14:25.280Z,1002.7
2023-01-20T03:15:27.969Z,1002.7
2023-01-20T03:16:30.725Z,1002.7
2023-01-20T03:17:34.239Z,1002.7
2023-01-20T03:18:36.961Z,1002.7
2023-01-20T03:19:40.139Z,1002.8
2023-01-20T03:20:43.281Z,1002.8
2023-01-20T03:21:46.954Z,1002.8
2023-01-20T03:22:50.367Z,1002.7
2023-01-20T03:23:54.103Z,1002.8
2023-01-20T03:24:58.129Z,1002.8
2023-01-20T03:26:01.554Z,1002.8
2023-01-20T03:27:05.052Z,1002.8
2023-01-20T03:28:07.643Z,1002.8
2023-01-20T03:29:11.030Z,1002.9
2023-01-20T03:30:14.602Z,1002.9
2023-01-20T03:31:17.659Z,1002.9
2023-01-20T03:32:22.141Z,1002.8
2023-01-20T03:33:24.893Z,1002.9
2023-01-20T03:34:27.983Z,1002.9
2023-01-20T03:35:31.181Z,1002.9
2023-01-20T03:36:34.657Z,1002.9
2023-01-20T03:37:38.028Z,1003
2023-01-20T03:38:41.298Z,1003
2023-01-20T03:39:44.743Z,1003
2023-01-20T03:40:48.516Z,1003
2023-01-20T03:41:51.103Z,1003
2023-01-20T03:42:54.854Z,1003
2023-01-20T03:43:57.981Z,1003
2023-01-20T03:45:01.391Z,1003
2023-01-20T03:46:04.534Z,1003.1
2023-01-20T03:47:08.529Z,1003
2023-01-20T03:48:12.193Z,1003.1
2023-01-20T03:49:14.859Z,1003
2023-01-20T03:50:17.651Z,1003.1
2023-01-20T03:51:20.553Z,1003.1
2023-01-20T03:52:48.690Z,1003.1
2023-01-20T03:53:52.334Z,1003.1
2023-01-20T03:54:56.439Z,1003.1
2023-01-20T03:56:00.179Z,1003.2
2023-01-20T03:57:03.604Z,1003.1
2023-01-20T03:58:07.087Z,1003.2
2023-01-20T03:59:10.284Z,1003.2
2023-01-20T04:00:12.989Z,1003.3
2023-01-20T04:01:19.501Z,1003.2
2023-01-20T04:02:23.651Z,1003.3
2023-01-20T04:03:28.100Z,1003.2
2023-01-20T04:04:30.902Z,1003.2
2023-01-20T04:05:33.969Z,1003.3
2023-01-20T04:06:36.995Z,1003.2
2023-01-20T04:07:40.706Z,1003.3
2023-01-20T04:08:43.716Z,1003.2
2023-01-20T04:09:46.905Z,1003.3
2023-01-20T04:10:49.998Z,1003.3
2023-01-20T04:11:54.169Z,1003.2
2023-01-20T04:12:57.665Z,1003.3
2023-01-20T04:14:00.948Z,1003.3
2023-01-20T04:15:03.845Z,1003.3
2023-01-20T04:16:07.669Z,1003.4
2023-01-20T04:17:10.347Z,1003.3
2023-01-20T04:18:13.505Z,1003.4
2023-01-20T04:19:16.492Z,1003.4
2023-01-20T04:20:19.585Z,1003.4
2023-01-20T04:21:22.624Z,1003.4
2023-01-20T04:22:25.696Z,1003.4
2023-01-20T04:23:28.461Z,1003.4
2023-01-20T04:24:30.657Z,1003.5
2023-01-20T04:25:34.142Z,1003.5
2023-01-20T04:26:37.960Z,1003.5
2023-01-20T04:27:42.075Z,1003.5
2023-01-20T04:28:45.605Z,1003.5
2023-01-20T04:29:49.645Z,1003.6
2023-01-20T04:30:53.403Z,1003.5
2023-01-20T04:31:56.933Z,1003.5
2023-01-20T04:32:59.905Z,1003.5
2023-01-20T04:34:03.276Z,1003.5
2023-01-20T04:35:06.423Z,1003.6
2023-01-20T04:36:09.439Z,1003.6
2023-01-20T04:37:12.234Z,1003.6
2023-01-20T04:38:15.380Z,1003.6
2023-01-20T04:39:19.023Z,1003.6
2023-01-20T04:40:22.147Z,1003.6
2023-01-20T04:41:25.548Z,1003.6
2023-01-20T04:42:28.768Z,1003.7
2023-01-20T04:43:32.626Z,1003.6
2023-01-20T04:44:35.731Z,1003.7
2023-01-20T04:45:39.513Z,1003.6
2023-01-20T04:46:43.293Z,1003.7
2023-01-20T04:47:46.360Z,1003.7
2023-01-20T04:48:49.265Z,1003.7
2023-01-20T04:49:52.455Z,1003.7
2023-01-20T04:50:55.809Z,1003.7
2023-01-20T04:51:58.000Z,1003.7
2023-01-20T04:53:01.504Z,1003.7
2023-01-20T04:54:05.242Z,1003.8
2023-01-20T04:55:08.416Z,1003.8
2023-01-20T04:56:11.765Z,1003.8
2023-01-20T04:57:14.698Z,1003.8
2023-01-20T04:58:18.173Z,1003.9
2023-01-20T04:59:21.680Z,1003.8
2023-01-20T05:00:25.075Z,1003.9
2023-01-20T05:01:28.496Z,1003.9
2023-01-20T05:02:32.853Z,1003.8
2023-01-20T05:03:35.934Z,1003.8
2023-01-20T05:04:39.700Z,1003.8
2023-01-20T05:05:42.260Z,1003.8
2023-01-20T05:06:45.637Z,1003.9
2023-01-20T05:07:48.724Z,1003.9
2023-01-20T05:08:52.128Z,1003.8
2023-01-20T05:09:55.393Z,1003.9
2023-01-20T05:10:58.180Z,1003.8
2023-01-20T05:12:00.608Z,1003.8
2023-01-20T05:13:03.815Z,1003.9
2023-01-20T05:14:07.207Z,1003.9
2023-01-20T05:15:10.728Z,1003.9
2023-01-20T05:16:15.181Z,1004
2023-01-20T05:17:18.996Z,1004
2023-01-20T05:18:22.075Z,1004
2023-01-20T05:19:25.277Z,1004
2023-01-20T05:20:28.564Z,1004.1
2023-01-20T05:21:32.199Z,1004
2023-01-20T05:22:35.663Z,1004.1
2023-01-20T05:23:39.472Z,1004
2023-01-20T05:24:42.496Z,1004.1
2023-01-20T05:25:45.881Z,1004.1
2023-01-20T05:26:49.312Z,1004.1
2023-01-20T05:27:52.314Z,1004.2
2023-01-20T05:28:55.824Z,1004.2
2023-01-20T05:29:59.215Z,1004.2
2023-01-20T05:31:03.035Z,1004.2
2023-01-20T05:32:07.539Z,1004.2
2023-01-20T05:33:10.682Z,1004.3
2023-01-20T05:34:13.669Z,1004.3
2023-01-20T05:35:17.421Z,1004.4
2023-01-20T05:36:20.859Z,1004.3
2023-01-20T05:37:24.027Z,1004.4
2023-01-20T05:38:27.412Z,1004.4
2023-01-20T05:39:30.402Z,1004.4
2023-01-20T05:40:33.116Z,1004.4
2023-01-20T05:41:36.152Z,1004.4
2023-01-20T05:42:39.284Z,1004.4
2023-01-20T05:43:42.702Z,1004.4
2023-01-20T05:44:45.727Z,1004.4
2023-01-20T05:45:48.822Z,1004.4
2023-01-20T05:46:52.930Z,1004.5
2023-01-20T05:47:55.956Z,1004.5
2023-01-20T05:48:58.991Z,1004.5
2023-01-20T05:50:02.279Z,1004.6
2023-01-20T05:51:04.986Z,1004.6
2023-01-20T05:52:08.051Z,1004.6
2023-01-20T05:53:10.305Z,1004.7
2023-01-20T05:54:13.085Z,1004.6
2023-01-20T05:55:16.965Z,1004.6
2023-01-20T05:56:20.401Z,1004.7
2023-01-20T05:57:23.409Z,1004.7
2023-01-20T05:58:26.554Z,1004.7
2023-01-20T05:59:30.359Z,1004.8
2023-01-20T06:00:33.258Z,1004.7
2023-01-20T06:01:36.951Z,1004.8
2023-01-20T06:02:40.943Z,1004.8
2023-01-20T06:03:45.059Z,1004.8
2023-01-20T06:04:48.655Z,1004.8
2023-01-20T06:05:52.132Z,1004.8
2023-01-20T06:06:54.875Z,1004.8
2023-01-20T06:07:57.719Z,1004.9
2023-01-20T06:09:01.078Z,1004.9
2023-01-20T06:10:04.557Z,1004.9
2023-01-20T06:11:08.299Z,1004.8
2023-01-20T06:12:11.137Z,1004.8
2023-01-20T06:13:14.467Z,1004.9
2023-01-20T06:14:17.448Z,1004.9
2023-01-20T06:15:20.246Z,1004.9
2023-01-20T06:16:23.731Z,1005
2023-01-20T06:17:26.462Z,1005
2023-01-20T06:18:30.299Z,1004.9
2023-01-20T06:19:33.952Z,1005
2023-01-20T06:20:37.473Z,1005.1
2023-01-20T06:21:40.271Z,1005
2023-01-20T06:22:43.735Z,1005
2023-01-20T06:23:46.899Z,1005.1
2023-01-20T06:24:50.213Z,1005.1
2023-01-20T06:25:52.993Z,1005.1
2023-01-20T06:26:55.692Z,1005.1
2023-01-20T06:27:58.909Z,1005.1
2023-01-20T06:29:02.159Z,1005.2
2023-01-20T06:30:05.563Z,1005.2
2023-01-20T06:31:09.229Z,1005.2
2023-01-20T06:32:12.914Z,1005.2
2023-01-20T06:33:16.628Z,1005.2
2023-01-20T06:34:20.121Z,1005.3
2023-01-20T06:35:22.595Z,1005.3
2023-01-20T06:36:25.340Z,1005.3
2023-01-20T06:37:28.733Z,1005.3
2023-01-20T06:38:31.882Z,1005.3
2023-01-20T06:39:35.237Z,1005.4
2023-01-20T06:40:37.752Z,1005.4
2023-01-20T06:41:40.175Z,1005.4
2023-01-20T06:42:43.361Z,1005.4
2023-01-20T06:43:46.520Z,1005.5
2023-01-20T06:44:49.644Z,1005.4
2023-01-20T06:45:52.684Z,1005.5
2023-01-20T06:46:56.229Z,1005.5
2023-01-20T06:48:00.181Z,1005.4
2023-01-20T06:49:03.135Z,1005.5
2023-01-20T06:50:06.661Z,1005.5
2023-01-20T06:51:09.422Z,1005.5
2023-01-20T06:52:11.899Z,1005.5
2023-01-20T06:53:15.353Z,1005.6
2023-01-20T06:54:18.618Z,1005.6
2023-01-20T06:55:21.974Z,1005.7
2023-01-20T06:56:25.627Z,1005.6
2023-01-20T06:57:28.435Z,1005.7
2023-01-20T06:58:31.823Z,1005.6
2023-01-20T06:59:35.309Z,1005.7
2023-01-20T07:00:38.088Z,1005.7
2023-01-20T07:01:41.444Z,1005.7
2023-01-20T07:02:44.727Z,1005.8
2023-01-20T07:03:48.876Z,1005.8
2023-01-20T07:04:52.671Z,1005.8
2023-01-20T07:05:56.767Z,1005.8
2023-01-20T07:07:00.252Z,1005.8
2023-01-20T07:08:04.054Z,1005.8
2023-01-20T07:09:07.078Z,1005.9
2023-01-20T07:10:09.917Z,1005.9
2023-01-20T07:11:13.097Z,1005.9
2023-01-20T07:12:15.984Z,1005.9
2023-01-20T07:13:19.379Z,1006
2023-01-20T07:14:23.009Z,1005.9
2023-01-20T07:15:25.717Z,1006
2023-01-20T07:16:28.801Z,1006
2023-01-20T07:17:32.747Z,1006
2023-01-20T07:18:35.822Z,1006
2023-01-20T07:19:38.560Z,1006
2023-01-20T07:20:42.241Z,1006
2023-01-20T07:21:45.420Z,1006.1
2023-01-20T07:22:47.881Z,1006.1
2023-01-20T07:23:51.129Z,1006.1
2023-01-20T07:24:54.860Z,1006.2
2023-01-20T07:25:57.848Z,1006.2
2023-01-20T07:27:01.206Z,1006.2
2023-01-20T07:28:04.226Z,1006.2
2023-01-20T07:29:07.316Z,1006.2
2023-01-20T07:30:10.690Z,1006.2
2023-01-20T07:31:14.544Z,1006.3
2023-01-20T07:32:17.907Z,1006.3
2023-01-20T07:33:21.257Z,1006.3
2023-01-20T07:34:24.726Z,1006.3
2023-01-20T07:35:27.752Z,1006.3
2023-01-20T07:36:31.505Z,1006.3
2023-01-20T07:37:34.807Z,1006.3
2023-01-20T07:38:38.267Z,1006.3
2023-01-20T07:39:41.642Z,1006.3
2023-01-20T07:40:44.920Z,1006.3
2023-01-20T07:41:48.650Z,1006.4
2023-01-20T07:42:51.384Z,1006.4
2023-01-20T07:43:54.479Z,1006.4
2023-01-20T07:44:57.075Z,1006.4
2023-01-20T07:46:00.900Z,1006.5
2023-01-20T07:47:04.571Z,1006.5
2023-01-20T07:48:08.021Z,1006.5
2023-01-20T07:49:12.999Z,1006.5
2023-01-20T07:50:16.757Z,1006.5
2023-01-20T07:51:20.465Z,1006.5
2023-01-20T07:52:23.889Z,1006.6
2023-01-20T07:53:27.984Z,1006.6
2023-01-20T07:54:31.097Z,1006.6
2023-01-20T07:55:34.362Z,1006.6
2023-01-20T07:56:37.578Z,1006.6
2023-01-20T07:57:40.625Z,1006.7
2023-01-20T07:58:44.042Z,1006.7
2023-01-20T07:59:47.397Z,1006.7
2023-01-20T08:00:51.685Z,1006.7
2023-01-20T08:01:55.824Z,1006.8
2023-01-20T08:02:59.177Z,1006.8
2023-01-20T08:04:02.648Z,1006.8
2023-01-20T08:05:06.205Z,1006.8
2023-01-20T08:06:10.078Z,1006.9
2023-01-20T08:07:13.132Z,1006.9
2023-01-20T08:08:16.832Z,1006.8
2023-01-20T08:09:20.667Z,1006.9
2023-01-20T08:10:24.827Z,1007
2023-01-20T08:11:28.143Z,1006.9
2023-01-20T08:12:31.208Z,1007
2023-01-20T08:13:34.626Z,1007
2023-01-20T08:14:38.539Z,1007
2023-01-20T08:15:41.615Z,1007
2023-01-20T08:16:44.656Z,1007
2023-01-20T08:17:48.547Z,1007
2023-01-20T08:18:51.906Z,1007.1
2023-01-20T08:19:55.717Z,1007
2023-01-20T08:20:59.099Z,1007
2023-01-20T08:22:01.918Z,1007.1
2023-01-20T08:23:04.983Z,1007.1
2023-01-20T08:24:08.448Z,1007.1
2023-01-20T08:25:11.918Z,1007.2
2023-01-20T08:26:16.669Z,1007.2
2023-01-20T08:27:20.378Z,1007.2
2023-01-20T08:28:23.095Z,1007.2
2023-01-20T08:29:26.244Z,1007.2
2023-01-20T08:30:29.185Z,1007.2
2023-01-20T08:31:32.624Z,1007.2
2023-01-20T08:32:37.068Z,1007.2
2023-01-20T08:33:40.108Z,1007.3
2023-01-20T08:34:43.643Z,1007.3
2023-01-20T08:35:47.012Z,1007.3
2023-01-20T08:36:50.188Z,1007.3
2023-01-20T08:37:53.834Z,1007.3
2023-01-20T08:38:57.239Z,1007.4
2023-01-20T08:40:00.635Z,1007.4
2023-01-20T08:41:04.567Z,1007.4
2023-01-20T08:42:07.944Z,1007.4
2023-01-20T08:43:11.728Z,1007.4
2023-01-20T08:44:15.115Z,1007.4
2023-01-20T08:45:17.968Z,1007.4
2023-01-20T08:46:22.192Z,1007.4
2023-01-20T08:47:26.105Z,1007.4
2023-01-20T08:48:29.447Z,1007.4
2023-01-20T08:49:33.372Z,1007.4
2023-01-20T08:50:37.128Z,1007.4
2023-01-20T08:51:39.679Z,1007.4
2023-01-20T08:52:43.634Z,1007.4
2023-01-20T08:53:46.996Z,1007.4
2023-01-20T08:54:50.489Z,1007.4
2023-01-20T08:55:54.213Z,1007.5
2023-01-20T08:56:57.821Z,1007.5
2023-01-20T08:58:01.345Z,1007.5
2023-01-20T08:59:05.146Z,1007.5
2023-01-20T09:00:08.556Z,1007.5
2023-01-20T09:01:12.297Z,1007.5
2023-01-20T09:02:15.724Z,1007.5
2023-01-20T09:03:19.688Z,1007.5
2023-01-20T09:04:22.574Z,1007.5
2023-01-20T09:05:25.699Z,1007.6
2023-01-20T09:06:29.425Z,1007.5
2023-01-20T09:07:32.694Z,1007.6
2023-01-20T09:08:36.028Z,1007.6
2023-01-20T09:09:39.207Z,1007.6
2023-01-20T09:10:43.008Z,1007.6
2023-01-20T09:11:47.239Z,1007.6
2023-01-20T09:12:50.586Z,1007.6
2023-01-20T09:13:53.688Z,1007.7
2023-01-20T09:14:56.717Z,1007.7
2023-01-20T09:16:00.594Z,1007.7
2023-01-20T09:17:04.264Z,1007.7
2023-01-20T09:18:07.903Z,1007.7
2023-01-20T09:19:11.411Z,1007.8
2023-01-20T09:20:14.548Z,1007.8
2023-01-20T09:21:18.050Z,1007.7
2023-01-20T09:22:21.141Z,1007.8
2023-01-20T09:23:24.530Z,1007.8
2023-01-20T09:24:27.669Z,1007.8
2023-01-20T09:25:30.659Z,1007.9
2023-01-20T09:26:36.698Z,1007.9
2023-01-20T09:27:40.770Z,1007.9
2023-01-20T09:28:44.321Z,1007.9
2023-01-20T09:29:48.406Z,1008
2023-01-20T09:30:51.903Z,1008
2023-01-20T09:31:55.608Z,1008
2023-01-20T09:32:58.746Z,1008
2023-01-20T09:34:02.835Z,1008
2023-01-20T09:35:06.576Z,1008
2023-01-20T09:36:10.178Z,1008
2023-01-20T09:37:13.533Z,1008.1
2023-01-20T09:38:17.214Z,1008.1
2023-01-20T09:39:20.930Z,1008.1
2023-01-20T09:40:24.674Z,1008.1
2023-01-20T09:41:28.410Z,1008.1
2023-01-20T09:42:32.113Z,1008.1
2023-01-20T09:43:35.559Z,1008.2
2023-01-20T09:44:39.522Z,1008.2
2023-01-20T09:45:42.906Z,1008.2
2023-01-20T09:46:46.275Z,1008.2
2023-01-20T09:47:49.377Z,1008.2
2023-01-20T09:48:52.854Z,1008.2
2023-01-20T09:49:56.930Z,1008.2
2023-01-20T09:51:00.010Z,1008.2
2023-01-20T09:52:03.107Z,1008.2
2023-01-20T09:53:06.116Z,1008.2
2023-01-20T09:54:09.510Z,1008.2
2023-01-20T09:55:12.487Z,1008.2
2023-01-20T09:56:15.019Z,1008.2
2023-01-20T09:57:19.040Z,1008.3
2023-01-20T09:58:22.128Z,1008.3
2023-01-20T09:59:25.824Z,1008.3
2023-01-20T10:00:29.666Z,1008.3
2023-01-20T10:01:33.160Z,1008.3
2023-01-20T10:02:36.711Z,1008.3
2023-01-20T10:03:40.048Z,1008.3
2023-01-20T10:04:43.051Z,1008.3
2023-01-20T10:05:45.853Z,1008.3
2023-01-20T10:06:49.269Z,1008.3
2023-01-20T10:07:52.739Z,1008.3
2023-01-20T10:09:06.841Z,1008.4
2023-01-20T10:10:10.864Z,1008.3
2023-01-20T10:11:14.425Z,1008.4
2023-01-20T10:12:17.910Z,1008.4
2023-01-20T10:13:20.411Z,1008.4
2023-01-20T10:14:24.139Z,1008.4
2023-01-20T10:15:27.757Z,1008.4
2023-01-20T10:16:32.032Z,1008.4
2023-01-20T10:17:35.485Z,1008.4
2023-01-20T10:18:39.214Z,1008.5
2023-01-20T10:19:42.668Z,1008.5
2023-01-20T10:20:45.682Z,1008.5
2023-01-20T10:21:49.455Z,1008.5
2023-01-20T10:22:53.102Z,1008.4
2023-01-20T10:23:55.855Z,1008.4
2023-01-20T10:24:59.302Z,1008.4
2023-01-20T10:26:02.652Z,1008.4
2023-01-20T10:27:05.792Z,1008.4
2023-01-20T10:28:08.895Z,1008.4
2023-01-20T10:29:12.296Z,1008.4
2023-01-20T10:30:16.422Z,1008.4
2023-01-20T10:31:21.188Z,1008.4
2023-01-20T10:32:25.891Z,1008.4
2023-01-20T10:33:29.058Z,1008.5
2023-01-20T10:34:32.434Z,1008.5
2023-01-20T10:35:35.936Z,1008.4
2023-01-20T10:36:39.332Z,1008.4
2023-01-20T10:37:42.387Z,1008.4
2023-01-20T10:38:45.494Z,1008.4
2023-01-20T10:39:47.678Z,1008.4
2023-01-20T10:40:51.348Z,1008.4
2023-01-20T10:41:55.255Z,1008.5
2023-01-20T10:42:57.956Z,1008.4
2023-01-20T10:44:00.464Z,1008.5
2023-01-20T10:45:03.947Z,1008.5
2023-01-20T10:46:07.724Z,1008.5
2023-01-20T10:47:15.169Z,1008.6
2023-01-20T10:48:19.317Z,1008.6
2023-01-20T10:49:22.466Z,1008.6
2023-01-20T10:50:25.643Z,1008.6
2023-01-20T10:51:29.182Z,1008.6
2023-01-20T10:52:32.366Z,1008.7
2023-01-20T10:53:35.832Z,1008.6
2023-01-20T10:54:38.816Z,1008.6
2023-01-20T10:55:42.162Z,1008.7
2023-01-20T10:56:45.402Z,1008.7
2023-01-20T10:57:48.468Z,1008.7
2023-01-20T10:58:52.103Z,1008.7
2023-01-20T10:59:55.820Z,1008.7
2023-01-20T11:00:59.629Z,1008.7
2023-01-20T11:02:12.849Z,1008.7
2023-01-20T11:03:17.216Z,1008.7
2023-01-20T11:04:21.575Z,1008.7
2023-01-20T11:05:25.164Z,1008.8
2023-01-20T11:06:28.229Z,1008.8
2023-01-20T11:07:31.719Z,1008.8
2023-01-20T11:08:34.966Z,1008.8
2023-01-20T11:09:38.361Z,1008.8
2023-01-20T11:10:41.356Z,1008.8
2023-01-20T11:11:44.800Z,1008.8
2023-01-20T11:12:47.815Z,1008.8
2023-01-20T11:13:50.661Z,1008.8
2023-01-20T11:14:54.408Z,1008.8
2023-01-20T11:15:57.583Z,1008.8
2023-01-20T11:17:00.623Z,1008.7
2023-01-20T11:18:03.721Z,1008.8
2023-01-20T11:19:07.526Z,1008.8
2023-01-20T11:20:11.382Z,1008.8
2023-01-20T11:21:15.442Z,1008.8
2023-01-20T11:22:18.522Z,1008.8
2023-01-20T11:23:22.266Z,1008.9
2023-01-20T11:24:26.040Z,1008.9
2023-01-20T11:25:29.405Z,1008.9
2023-01-20T11:26:32.525Z,1008.9
2023-01-20T11:27:35.604Z,1008.9
2023-01-20T11:28:39.358Z,1008.9
2023-01-20T11:29:43.033Z,1009
2023-01-20T11:30:46.566Z,1009
2023-01-20T11:31:50.584Z,1009
2023-01-20T11:32:53.742Z,1009
2023-01-20T11:33:56.833Z,1009
2023-01-20T11:34:59.971Z,1009.1
2023-01-20T11:36:03.534Z,1009
2023-01-20T11:37:06.411Z,1009.1
2023-01-20T11:38:09.482Z,1009.1
2023-01-20T11:39:12.747Z,1009.1
2023-01-20T11:40:17.415Z,1009.1
2023-01-20T11:41:20.870Z,1009.1
2023-01-20T11:42:24.261Z,1009.2
2023-01-20T11:43:27.591Z,1009.2
2023-01-20T11:44:30.368Z,1009.2
2023-01-20T11:45:34.178Z,1009.2
2023-01-20T11:46:37.555Z,1009.2
2023-01-20T11:47:41.204Z,1009.2
2023-01-20T11:48:44.552Z,1009.2
2023-01-20T11:49:47.027Z,1009.1
2023-01-20T11:50:50.741Z,1009.2
2023-01-20T11:51:54.661Z,1009.2
2023-01-20T11:52:58.201Z,1009.2
2023-01-20T11:54:01.573Z,1009.3
2023-01-20T11:55:04.614Z,1009.2
2023-01-20T11:56:07.781Z,1009.3
2023-01-20T11:57:10.918Z,1009.3
2023-01-20T11:58:13.529Z,1009.3
2023-01-20T11:59:16.797Z,1009.3
2023-01-20T12:00:19.870Z,1009.4
2023-01-20T12:01:23.340Z,1009.4
2023-01-20T12:02:26.995Z,1009.4
2023-01-20T12:03:30.131Z,1009.4
2023-01-20T12:04:33.223Z,1009.4
2023-01-20T12:05:37.024Z,1009.4
2023-01-20T12:06:41.129Z,1009.4
2023-01-20T12:07:44.888Z,1009.4
2023-01-20T12:08:48.024Z,1009.4
2023-01-20T12:09:51.491Z,1009.5
2023-01-20T12:10:54.856Z,1009.5
2023-01-20T12:11:57.676Z,1009.6
2023-01-20T12:13:00.382Z,1009.5
2023-01-20T12:14:03.718Z,1009.5
2023-01-20T12:15:07.177Z,1009.6
2023-01-20T12:16:10.461Z,1009.6
2023-01-20T12:17:12.906Z,1009.6
2023-01-20T12:18:15.799Z,1009.6
2023-01-20T12:19:19.853Z,1009.6
2023-01-20T12:20:23.029Z,1009.6
2023-01-20T12:21:26.932Z,1009.6
2023-01-20T12:22:30.123Z,1009.6
2023-01-20T12:23:33.942Z,1009.7
2023-01-20T12:24:43.687Z,1009.7
2023-01-20T12:25:47.576Z,1009.7
2023-01-20T12:26:51.251Z,1009.7
2023-01-20T12:27:54.580Z,1009.7
2023-01-20T12:28:57.086Z,1009.7
2023-01-20T12:30:00.285Z,1009.7
2023-01-20T12:31:04.023Z,1009.7
2023-01-20T12:32:08.149Z,1009.7
2023-01-20T12:33:12.313Z,1009.8
2023-01-20T12:34:15.054Z,1009.7
2023-01-20T12:35:18.161Z,1009.8
2023-01-20T12:36:21.962Z,1009.8
2023-01-20T12:37:24.783Z,1009.8
2023-01-20T12:38:27.615Z,1009.8
2023-01-20T12:39:31.529Z,1009.8
2023-01-20T12:40:35.222Z,1009.8
2023-01-20T12:41:38.218Z,1009.9
2023-01-20T12:42:42.219Z,1009.8
2023-01-20T12:43:45.358Z,1009.9
2023-01-20T12:44:48.516Z,1009.9
2023-01-20T12:45:51.378Z,1009.9
2023-01-20T12:46:55.188Z,1009.9
2023-01-20T12:47:58.813Z,1010
2023-01-20T12:49:01.805Z,1009.9
2023-01-20T12:50:04.917Z,1009.9
2023-01-20T12:51:07.459Z,1010
2023-01-20T12:52:11.131Z,1009.9
2023-01-20T12:53:17.365Z,1009.9
2023-01-20T12:54:20.529Z,1009.9
2023-01-20T12:55:24.765Z,1010
2023-01-20T12:56:27.836Z,1009.9
2023-01-20T12:57:31.131Z,1010
2023-01-20T12:58:34.773Z,1010
2023-01-20T12:59:38.795Z,1010
2023-01-20T13:00:41.606Z,1010
2023-01-20T13:01:44.892Z,1010
2023-01-20T13:02:49.036Z,1010.1
2023-01-20T13:03:52.958Z,1010.1
2023-01-20T13:04:55.965Z,1010.1
2023-01-20T13:05:59.299Z,1010.2
2023-01-20T13:07:02.982Z,1010.2
2023-01-20T13:08:06.392Z,1010.2
2023-01-20T13:09:09.510Z,1010.2
2023-01-20T13:10:13.446Z,1010.2
2023-01-20T13:11:19.795Z,1010.2
2023-01-20T13:12:22.610Z,1010.2
2023-01-20T13:13:25.607Z,1010.3
2023-01-20T13:14:27.764Z,1010.3
2023-01-20T13:15:31.204Z,1010.3
2023-01-20T13:16:34.637Z,1010.3
2023-01-20T13:17:38.055Z,1010.3